LFMLLGRP

Guest
Details From LFML - Marseille Provence
To LGRP - DIAGORAS
Flight Number -
Tags decoded
Created
Modified
Stats Distance 1,130 nm / 2,093 km
Max Altitude 0 ft / 0 m
Waypoints 2
Social Downloads 0
Likes 0
Share VATSIM

Download

Looking for another format? Having issues loading an existing format? Contact us
Advertisement - Login to hide

Notes

Requested: LFML LGRP

Route

LFML LGRP

ID Type Via Altitude Latitude Longitude Leg Dist Tot Dist Heading (true) Name
O LFML APT - 0 ft / 0 m 43.43589˚ 5.21328˚ - 0 nm - Marseille Provence
O LGRP APT - 0 ft / 0 m 36.40542˚ 28.08619˚ 1130 nm 1130 nm 104° / 119° DIAGORAS

Altitude Profile

Advertisement - Login to hide

Weather


0- 5 10 15 20 25 30 35+ Temperature / ° C

Clouds and Precipitation
Forecast for 2018-05-27 18:00 UTC. Updated an hour ago

Ground ~20,000 ft ~40,000 ft Winds

LFML

Details ICAO LFML (MRS)
Name Marseille Provence
Region France
Timezone Europe/Paris (UTC+2.0)
Stats Elevation 74 ft / 23 m (AMSL)
Location 43.435892° 5.213282°
Runways 2
Magnetic Variation 1.604° E

METAR

LFML 271800Z AUTO 11003KT 060V150 CAVOK 23/16 Q1014 TEMPO VRB15G30KT 3000 TSRA SCT010 BKN030CB

Decode

TAF

TAF TAF LFML 271400Z 2715/2821 VRB05KT CAVOK TEMPO 2715/2821 SCT040TCU PROB40 TEMPO 2715/2821 VRB15G30KT 3000 TSRA SCT010 BKN030CB TX26/2715Z TN20/2803Z

Decode

Departure Runways

ID Width Length Bearing (true) Bearing (mag) Surface Threshold Offset Overrun Length
13L 148 ft / 45 m 11,478 ft / 3,499 m 133.99° 132.39° Asphalt 1,115 ft / 340 m 0 ft / 0 m
13R 148 ft / 45 m 7,981 ft / 2,433 m 134.90° 133.30° Asphalt 0 ft / 0 m 0 ft / 0 m
31L 148 ft / 45 m 7,981 ft / 2,433 m 314.91° 313.31° Asphalt 344 ft / 105 m 0 ft / 0 m
31R 148 ft / 45 m 11,478 ft / 3,499 m 314.01° 312.41° Asphalt 2,165 ft / 660 m 0 ft / 0 m

LGRP

Details ICAO LGRP (RHO)
Name DIAGORAS
Region Greece
Timezone Europe/Athens (UTC+3.0)
Stats Elevation 17 ft / 5 m (AMSL)
Location 36.405420° 28.086193°
Runways 1
Magnetic Variation 4.823° E

METAR

LGRP 271750Z 25006KT 9999 FEW016 23/18 Q1010 NOSIG

Decode

TAF

TAF LGRP 271700Z 2718/2818 26010KT 9999 FEW016 PROB30 TEMPO 2810/2817 5000 SHRA SCT016 FEW018CB BKN050

Decode

Destination Runways

ID Width Length Bearing (true) Bearing (mag) Surface Threshold Offset Overrun Length
07 148 ft / 45 m 10,830 ft / 3,301 m 69.97° 65.15° Asphalt 0 ft / 0 m 0 ft / 0 m
25 148 ft / 45 m 10,830 ft / 3,301 m 249.99° 245.17° Asphalt 0 ft / 0 m 0 ft / 0 m

Approach Navaids

Runway Type Ident Frequency Range Bearing (true) Bearing (mag) Slope Elevation
25 Localiser IRDS 110.30 MHz 18 nm / 33 km 250.45° 245.62° - 17 ft / 5 m (AMSL)
25 Glidescope IRDS 110.30 MHz 10 nm / 19 km 249.98° 245.16° 3.00° 17 ft / 5 m (AMSL)

Popular Alternatives